Time;durP1;ratioP1;P1;durP2;ratioP2;P2;SDS_P1;SDS_P2;PMS_P1;PMS_P2;Temp;Humidity;BMP_temperature;BMP_pressure;BME280_temperature;BME280_humidity;BME280_pressure;Samples;Min_cycle;Max_cycle;Signal;HPM_P1;HPM_P2
2022/01/06 00:02:08;;;;;;;11.93;6.60;;;;;;;1.94;100.00;97469.59;2310988;77;21018;-84
2022/01/06 00:05:08;;;;;;;10.75;6.85;;;;;;;1.96;100.00;97465.56;2310960;77;20906;-84
2022/01/06 00:08:09;;;;;;;14.50;7.00;;;;;;;1.99;100.00;97457.49;2310907;77;21507;-85
2022/01/06 00:11:11;;;;;;;8.95;5.20;;;;;;;1.97;100.00;97447.33;2311048;77;21023;-85
2022/01/06 00:14:25;;;;;;;8.85;5.33;;;;;;;1.96;100.00;97453.94;2311128;77;21461;-85
2022/01/06 00:17:36;;;;;;;11.10;5.85;;;;;;;1.87;100.00;97451.00;2308322;77;21018;-86
2022/01/06 00:23:39;;;;;;;12.73;6.87;;;;;;;1.77;100.00;97459.34;2309925;77;22131;-86
2022/01/06 00:26:40;;;;;;;12.28;6.20;;;;;;;1.70;100.00;97466.41;2307004;77;20943;-85
2022/01/06 00:29:41;;;;;;;9.25;5.37;;;;;;;1.67;100.00;97456.88;2306968;77;20942;-85
2022/01/06 00:32:41;;;;;;;9.58;5.55;;;;;;;1.64;100.00;97464.43;2306964;77;20954;-85
2022/01/06 00:35:42;;;;;;;9.83;5.00;;;;;;;1.61;100.00;97461.36;2306404;77;21511;-85
2022/01/06 00:38:43;;;;;;;10.50;5.33;;;;;;;1.58;100.00;97470.22;2306989;77;21481;-85
2022/01/06 00:41:44;;;;;;;7.20;4.58;;;;;;;1.56;100.00;97474.73;2306686;77;21021;-84
2022/01/06 00:44:46;;;;;;;5.85;4.47;;;;;;;1.53;100.00;97471.63;2306751;77;21057;-84
2022/01/06 00:47:47;;;;;;;9.40;5.45;;;;;;;1.52;100.00;97473.88;2306760;77;20954;-84
2022/01/06 00:50:48;;;;;;;9.68;4.87;;;;;;;1.50;100.00;97479.69;2306727;77;20990;-85
2022/01/06 00:53:48;;;;;;;11.48;4.75;;;;;;;1.48;100.00;97482.42;2306735;77;20966;-85
2022/01/06 00:56:49;;;;;;;12.25;5.40;;;;;;;1.48;100.00;97493.22;2306571;77;20974;-85
2022/01/06 00:59:50;;;;;;;9.28;6.28;;;;;;;1.47;100.00;97494.19;2306576;77;21058;-85
2022/01/06 01:02:51;;;;;;;32.35;15.72;;;;;;;1.45;100.00;97482.70;2306870;77;22109;-85
2022/01/06 01:05:52;;;;;;;15.90;8.03;;;;;;;1.47;100.00;97482.58;2306892;77;21013;-85
2022/01/06 01:08:53;;;;;;;11.33;5.40;;;;;;;1.50;100.00;97488.23;2306767;77;21448;-84
2022/01/06 01:11:54;;;;;;;12.33;5.60;;;;;;;1.55;100.00;97482.60;2307135;77;21101;-84
2022/01/06 01:15:04;;;;;;;6.85;4.60;;;;;;;1.57;100.00;97486.67;2306725;77;20942;-85
2022/01/06 01:18:06;;;;;;;6.20;4.33;;;;;;;1.59;100.00;97483.45;2304908;77;21058;-84
2022/01/06 01:21:02;;;;;;;5.85;4.40;;;;;;;1.61;100.00;97491.03;2305478;77;20962;-85
2022/01/06 01:24:03;;;;;;;6.65;5.05;;;;;;;1.63;100.00;97487.33;2306293;77;21608;-85
2022/01/06 01:27:04;;;;;;;12.40;6.15;;;;;;;1.67;100.00;97493.82;2306481;77;21018;-85
2022/01/06 01:30:10;;;;;;;38.20;14.23;;;;;;;1.71;100.00;97498.18;2306548;77;21057;-85
2022/01/06 01:33:15;;;;;;;25.65;9.60;;;;;;;1.78;100.00;97499.67;2306115;77;21058;-85
2022/01/06 01:36:11;;;;;;;10.78;5.25;;;;;;;1.83;100.00;97508.59;2305648;77;21414;-85
2022/01/06 01:39:11;;;;;;;8.80;5.35;;;;;;;1.86;100.00;97505.69;2306885;77;21065;-84
2022/01/06 01:42:13;;;;;;;9.73;4.92;;;;;;;1.90;100.00;97507.47;2306825;77;21026;-85
2022/01/06 01:45:14;;;;;;;7.75;4.87;;;;;;;1.88;100.00;97506.34;2276010;77;21031;-84
2022/01/06 01:48:24;;;;;;;9.23;5.17;;;;;;;1.87;100.00;97502.63;2306760;77;21500;-86
2022/01/06 01:51:17;;;;;;;10.65;5.40;;;;;;;1.85;100.00;97492.94;2304581;77;21601;-84
2022/01/06 01:54:18;;;;;;;10.98;5.85;;;;;;;1.81;100.00;97492.91;2306662;77;21073;-84
2022/01/06 01:57:19;;;;;;;15.40;8.88;;;;;;;1.79;100.00;97498.71;2306882;77;20993;-84
2022/01/06 02:00:19;;;;;;;78.20;26.48;;;;;;;1.79;100.00;97496.94;2307063;77;21040;-84
2022/01/06 02:03:20;;;;;;;77.55;24.23;;;;;;;1.77;100.00;97495.48;2306849;77;21054;-84
2022/01/06 02:06:22;;;;;;;28.87;10.32;;;;;;;1.73;100.00;97485.13;2306608;77;20993;-84
2022/01/06 02:09:23;;;;;;;16.25;7.05;;;;;;;1.68;100.00;97485.59;2307261;77;20982;-84
2022/01/06 02:12:24;;;;;;;12.33;6.60;;;;;;;1.63;100.00;97487.81;2306584;77;20997;-84
2022/01/06 02:15:25;;;;;;;12.75;7.10;;;;;;;1.57;100.00;97486.67;2306747;77;20977;-84
2022/01/06 02:18:27;;;;;;;8.68;5.90;;;;;;;1.53;100.00;97485.34;2306686;77;21591;-84
2022/01/06 02:21:28;;;;;;;11.73;5.72;;;;;;;1.50;100.00;97500.33;2306656;77;21022;-84
2022/01/06 02:24:28;;;;;;;11.65;5.50;;;;;;;1.48;100.00;97494.52;2307697;77;20966;-84
2022/01/06 02:27:29;;;;;;;9.68;5.75;;;;;;;1.46;100.00;97506.25;2310828;77;21501;-85
2022/01/06 02:30:32;;;;;;;46.60;17.20;;;;;;;1.44;100.00;97512.05;2311172;77;20994;-84
2022/01/06 02:33:33;;;;;;;94.30;28.70;;;;;;;1.41;100.00;97503.33;2310612;77;20987;-84
2022/01/06 02:36:34;;;;;;;133.27;38.38;;;;;;;1.36;100.00;97507.64;2310233;77;21265;-84
2022/01/06 02:39:35;;;;;;;32.03;11.38;;;;;;;1.33;100.00;97518.74;2310716;77;22124;-85
2022/01/06 02:42:36;;;;;;;17.95;6.47;;;;;;;1.30;100.00;97518.58;2310863;77;21052;-84
2022/01/06 02:45:37;;;;;;;14.53;6.35;;;;;;;1.32;100.00;97515.84;2310701;77;21457;-84
2022/01/06 02:48:37;;;;;;;11.30;5.87;;;;;;;1.34;100.00;97525.03;2310818;77;20950;-84
2022/01/06 02:51:38;;;;;;;13.88;5.62;;;;;;;1.40;100.00;97527.51;2310680;77;21465;-84
2022/01/06 02:54:39;;;;;;;10.28;5.65;;;;;;;1.45;100.00;97520.59;2310816;77;20981;-84
2022/01/06 02:57:40;;;;;;;9.73;5.45;;;;;;;1.51;100.00;97528.55;2310746;77;21441;-84
2022/01/06 03:00:41;;;;;;;14.23;5.65;;;;;;;1.53;100.00;97535.65;2310773;77;20954;-84
2022/01/06 03:03:41;;;;;;;11.33;5.70;;;;;;;1.61;100.00;97532.31;2310717;77;21096;-84
2022/01/06 03:06:42;;;;;;;19.23;9.30;;;;;;;1.65;100.00;97538.81;2310871;77;20946;-84
2022/01/06 03:09:44;;;;;;;41.23;17.10;;;;;;;1.73;100.00;97532.37;2310842;77;21271;-84
2022/01/06 03:12:45;;;;;;;26.97;10.53;;;;;;;1.79;100.00;97536.14;2310895;77;20986;-84
2022/01/06 03:15:46;;;;;;;12.05;5.72;;;;;;;1.83;100.00;97540.02;2310730;77;21040;-84
2022/01/06 03:18:46;;;;;;;11.97;5.58;;;;;;;1.87;100.00;97546.51;2310593;77;20946;-84
2022/01/06 03:21:47;;;;;;;6.70;4.58;;;;;;;1.91;100.00;97542.64;2310705;77;21081;-84
2022/01/06 03:24:48;;;;;;;10.55;4.83;;;;;;;1.94;100.00;97543.66;2310404;77;21013;-83
2022/01/06 03:27:49;;;;;;;9.03;4.62;;;;;;;1.96;100.00;97546.39;2311368;77;20985;-84
2022/01/06 03:30:50;;;;;;;10.40;4.78;;;;;;;1.97;100.00;97541.56;2310573;77;20993;-84
2022/01/06 03:33:51;;;;;;;6.90;4.10;;;;;;;2.00;100.00;97544.31;2310442;77;20958;-84
2022/01/06 03:36:52;;;;;;;7.08;4.67;;;;;;;2.02;100.00;97544.98;2310523;77;21073;-84
2022/01/06 03:39:52;;;;;;;8.88;5.22;;;;;;;2.07;100.00;97553.55;2310342;77;20958;-84
2022/01/06 03:42:53;;;;;;;8.30;4.83;;;;;;;2.11;100.00;97558.27;2310344;77;21013;-84
2022/01/06 03:45:54;;;;;;;7.33;4.15;;;;;;;2.14;100.00;97564.89;2310407;77;20943;-84
2022/01/06 03:48:56;;;;;;;7.15;4.05;;;;;;;2.16;100.00;97561.66;2310445;77;20990;-83
2022/01/06 03:51:56;;;;;;;42.40;15.48;;;;;;;2.17;100.00;97562.80;2310582;77;20950;-84
2022/01/06 03:54:57;;;;;;;26.05;9.25;;;;;;;2.17;100.00;97561.98;2310662;77;21052;-84
2022/01/06 03:57:58;;;;;;;18.32;6.60;;;;;;;2.18;100.00;97560.53;2310542;77;20946;-84
2022/01/06 04:00:59;;;;;;;14.95;4.75;;;;;;;2.20;100.00;97565.09;2310584;77;21000;-84
2022/01/06 04:04:00;;;;;;;5.20;3.67;;;;;;;2.25;100.00;97565.90;2310746;77;21045;-84
2022/01/06 04:07:00;;;;;;;7.78;4.00;;;;;;;2.24;100.00;97570.74;2310865;77;21438;-84
2022/01/06 04:10:01;;;;;;;8.28;3.87;;;;;;;2.24;100.00;97568.97;2310939;77;21056;-84
2022/01/06 04:13:02;;;;;;;7.72;3.90;;;;;;;2.21;100.00;97564.13;2310668;77;21018;-84
2022/01/06 04:16:07;;;;;;;3.15;2.85;;;;;;;2.20;100.00;97567.67;2310827;77;21637;-84
2022/01/06 04:19:06;;;;;;;8.63;3.50;;;;;;;2.22;100.00;97568.80;2310247;77;21041;-84
2022/01/06 04:22:07;;;;;;;5.30;3.60;;;;;;;2.23;100.00;97564.77;2281795;77;22222;-84
2022/01/06 04:25:08;;;;;;;5.85;3.22;;;;;;;2.23;100.00;97566.06;2310624;77;20979;-84
2022/01/06 04:28:08;;;;;;;8.35;4.15;;;;;;;2.29;100.00;97578.85;2310760;77;21488;-84
2022/01/06 04:31:09;;;;;;;7.95;3.95;;;;;;;2.30;100.00;97569.33;2310954;77;21053;-84
2022/01/06 04:34:10;;;;;;;7.03;3.50;;;;;;;2.30;100.00;97574.49;2310924;77;21564;-84
2022/01/06 04:37:10;;;;;;;5.60;3.40;;;;;;;2.30;100.00;97564.97;2311030;77;21006;-84
2022/01/06 04:40:11;;;;;;;5.40;3.08;;;;;;;2.33;100.00;97559.48;2310867;77;20961;-84
2022/01/06 04:43:12;;;;;;;4.53;3.40;;;;;;;2.30;100.00;97555.92;2310846;77;21077;-84
2022/01/06 04:46:13;;;;;;;5.28;3.05;;;;;;;2.28;100.00;97558.64;2310626;77;20981;-84
2022/01/06 04:49:14;;;;;;;11.18;7.03;;;;;;;2.23;100.00;97557.02;2310763;77;21108;-84
2022/01/06 04:52:14;;;;;;;6.20;4.65;;;;;;;2.16;100.00;97558.59;2310729;77;20954;-83
2022/01/06 04:55:15;;;;;;;5.30;4.12;;;;;;;2.11;100.00;97571.66;2311236;77;20997;-83
2022/01/06 04:58:16;;;;;;;5.55;3.80;;;;;;;2.04;100.00;97566.30;2310893;77;21014;-84
2022/01/06 05:01:17;;;;;;;7.08;3.65;;;;;;;1.97;100.00;97576.89;2311013;77;21012;-84
2022/01/06 05:04:18;;;;;;;5.42;3.35;;;;;;;1.92;100.00;97579.95;2310798;77;21039;-84
2022/01/06 05:07:19;;;;;;;4.22;3.12;;;;;;;1.90;100.00;97576.69;2311129;77;20907;-83
2022/01/06 05:10:20;;;;;;;6.60;3.87;;;;;;;1.89;100.00;97578.95;2310961;77;21049;-84
2022/01/06 05:13:20;;;;;;;4.33;3.45;;;;;;;1.90;100.00;97590.08;2311295;77;21054;-84
2022/01/06 05:16:21;;;;;;;4.58;3.17;;;;;;;1.94;100.00;97592.22;2310847;77;21052;-83
2022/01/06 05:19:22;;;;;;;4.10;3.12;;;;;;;2.05;100.00;97592.92;2310990;77;20966;-84
2022/01/06 05:22:23;;;;;;;7.58;3.47;;;;;;;2.05;100.00;97592.92;2310873;77;21043;-84
2022/01/06 05:25:28;;;;;;;7.08;3.70;;;;;;;2.12;100.00;97594.74;2309093;77;21581;-85
2022/01/06 05:28:27;;;;;;;4.08;3.33;;;;;;;2.18;100.00;97601.05;2306347;77;21501;-84
2022/01/06 05:31:28;;;;;;;3.98;2.98;;;;;;;2.23;100.00;97602.70;2306742;77;21045;-84
2022/01/06 05:34:28;;;;;;;9.98;4.80;;;;;;;2.27;100.00;97606.59;2306849;77;21501;-84
2022/01/06 05:37:29;;;;;;;5.67;3.67;;;;;;;2.30;100.00;97611.46;2306960;77;21050;-86
2022/01/06 05:40:30;;;;;;;5.20;3.40;;;;;;;2.33;100.00;97611.62;2306695;77;20982;-85
2022/01/06 05:43:31;;;;;;;6.90;4.35;;;;;;;2.34;100.00;97614.05;2306790;77;20954;-85
2022/01/06 05:46:32;;;;;;;6.55;3.00;;;;;;;2.34;100.00;97619.22;2306825;77;20963;-85
2022/01/06 05:49:33;;;;;;;8.13;3.50;;;;;;;2.39;100.00;97621.36;2306759;77;20954;-83
2022/01/06 05:52:34;;;;;;;7.15;3.40;;;;;;;2.42;100.00;97626.20;2306743;77;21049;-84
2022/01/06 05:55:34;;;;;;;7.12;3.47;;;;;;;2.43;100.00;97620.88;2306766;77;20962;-84
2022/01/06 05:58:36;;;;;;;6.08;3.33;;;;;;;2.47;100.00;97617.48;2306939;77;21061;-83
2022/01/06 06:01:38;;;;;;;3.60;3.30;;;;;;;2.49;100.00;97630.61;2307275;77;21014;-85
2022/01/06 06:04:38;;;;;;;3.87;3.40;;;;;;;2.48;100.00;97621.23;2306737;77;20999;-84
2022/01/06 06:07:39;;;;;;;3.83;3.00;;;;;;;2.52;100.00;97628.99;2306817;77;21025;-84
2022/01/06 06:10:40;;;;;;;3.83;2.90;;;;;;;2.51;100.00;97645.95;2306758;77;20943;-84
2022/01/06 06:13:41;;;;;;;4.70;2.90;;;;;;;2.48;100.00;97634.16;2306536;77;20969;-84
2022/01/06 06:16:42;;;;;;;3.42;2.52;;;;;;;2.48;100.00;97644.49;2306813;77;20970;-85
2022/01/06 06:19:42;;;;;;;6.65;3.17;;;;;;;2.49;100.00;97649.18;2306745;77;20947;-85
2022/01/06 06:22:43;;;;;;;5.05;3.12;;;;;;;2.50;100.00;97658.55;2306620;77;20994;-85
2022/01/06 06:25:44;;;;;;;8.43;4.67;;;;;;;2.51;100.00;97662.27;2308109;77;21500;-85
2022/01/06 06:28:45;;;;;;;7.83;3.52;;;;;;;2.56;100.00;97665.66;2310748;77;20946;-85
2022/01/06 06:31:46;;;;;;;8.93;3.55;;;;;;;2.58;100.00;97669.41;2310733;77;21555;-85
2022/01/06 06:34:46;;;;;;;5.90;3.60;;;;;;;2.60;100.00;97669.58;2310713;77;20919;-84
2022/01/06 06:37:47;;;;;;;3.80;3.20;;;;;;;2.61;100.00;97676.84;2310624;77;21001;-84
2022/01/06 06:40:51;;;;;;;5.53;3.67;;;;;;;2.58;100.00;97676.68;2310257;77;21025;-84
2022/01/06 06:44:02;;;;;;;4.50;2.50;;;;;;;2.53;100.00;97686.17;2176119;81;21617;-83
2022/01/06 06:46:58;;;;;;;3.50;2.90;;;;;;;2.51;100.00;97689.88;2196918;81;21527;-83
2022/01/06 06:50:02;;;;;;;3.77;2.67;;;;;;;2.49;100.00;97694.40;2201513;81;21582;-83
2022/01/06 06:53:03;;;;;;;3.70;3.12;;;;;;;2.49;100.00;97700.86;2202204;81;21075;-83
2022/01/06 06:56:04;;;;;;;5.10;3.20;;;;;;;2.49;100.00;97716.36;2202468;81;21534;-84
2022/01/06 06:59:04;;;;;;;5.20;3.37;;;;;;;2.50;100.00;97709.75;2202315;81;20952;-84
2022/01/06 07:02:05;;;;;;;3.37;3.08;;;;;;;2.51;100.00;97704.90;2202366;81;21031;-84
2022/01/06 07:05:06;;;;;;;5.45;3.27;;;;;;;2.51;100.00;97711.84;2202195;81;21007;-83
2022/01/06 07:08:07;;;;;;;6.47;3.33;;;;;;;2.54;100.00;97717.51;2202187;81;20956;-83
2022/01/06 07:11:08;;;;;;;5.58;4.25;;;;;;;2.55;100.00;97713.95;2202325;81;21597;-82
2022/01/06 07:14:09;;;;;;;6.08;4.45;;;;;;;2.54;100.00;97721.86;2202243;81;20979;-82
2022/01/06 07:17:10;;;;;;;5.17;3.62;;;;;;;2.56;100.00;97726.39;2202225;81;21534;-83
2022/01/06 07:20:10;;;;;;;4.40;3.60;;;;;;;2.59;100.00;97724.81;2224557;77;20962;-84
2022/01/06 07:23:11;;;;;;;5.17;3.92;;;;;;;2.61;100.00;97730.64;2310651;77;21081;-84
2022/01/06 07:26:12;;;;;;;5.33;3.58;;;;;;;2.65;100.00;97741.02;2308334;77;21006;-85
2022/01/06 07:29:13;;;;;;;5.60;3.22;;;;;;;2.70;100.00;97740.54;2306640;77;20966;-83
2022/01/06 07:32:14;;;;;;;3.55;3.25;;;;;;;2.73;100.00;97740.23;2306686;77;21493;-85
2022/01/06 07:35:14;;;;;;;6.65;4.05;;;;;;;2.74;100.00;97748.30;2306166;77;21027;-84
2022/01/06 07:38:15;;;;;;;5.42;3.83;;;;;;;2.78;100.00;97745.76;2306783;77;21049;-85
2022/01/06 07:41:16;;;;;;;8.05;3.98;;;;;;;2.81;100.00;97751.91;2306445;77;20954;-84
2022/01/06 07:44:17;;;;;;;4.03;3.20;;;;;;;2.83;100.00;97749.52;2306588;77;21005;-84
2022/01/06 07:47:19;;;;;;;4.42;3.33;;;;;;;2.85;100.00;97754.53;2306457;77;20982;-84
2022/01/06 07:50:19;;;;;;;6.65;3.60;;;;;;;2.88;100.00;97751.63;2306204;77;21013;-85
2022/01/06 07:53:20;;;;;;;6.25;3.40;;;;;;;2.90;100.00;97758.73;2306418;77;20923;-85
2022/01/06 07:56:21;;;;;;;3.60;3.30;;;;;;;2.95;100.00;97763.47;2305999;77;20977;-86
2022/01/06 07:59:24;;;;;;;7.17;4.37;;;;;;;2.95;100.00;97752.63;2191884;81;21038;-83
2022/01/06 08:02:42;;;;;;;8.03;4.20;;;;;;;2.94;100.00;97761.36;2192316;81;21015;-85
2022/01/06 08:05:30;;;;;;;9.33;5.05;;;;;;;2.96;100.00;97756.03;2185774;80;20986;-84
2022/01/06 08:08:31;;;;;;;7.65;4.90;;;;;;;2.93;100.00;97762.81;2193045;81;21015;-88
2022/01/06 08:11:31;;;;;;;6.62;4.22;;;;;;;2.86;100.00;97760.02;2192941;81;21049;-86
2022/01/06 08:14:32;;;;;;;5.25;3.33;;;;;;;2.77;100.00;97760.46;2193321;81;20966;-88
2022/01/06 08:17:33;;;;;;;4.90;4.37;;;;;;;2.69;100.00;97766.88;2192993;81;21006;-84
2022/01/06 08:20:35;;;;;;;6.72;4.35;;;;;;;2.64;100.00;97770.38;2192612;81;21054;-84
2022/01/06 08:23:38;;;;;;;10.93;5.47;;;;;;;2.58;100.00;97767.62;2192166;81;21537;-85
2022/01/06 08:26:39;;;;;;;9.70;5.45;;;;;;;2.48;100.00;97763.36;2192576;81;21109;-83
2022/01/06 08:29:40;;;;;;;7.47;6.22;;;;;;;2.46;100.00;97769.62;2192876;81;20990;-88
2022/01/06 08:32:41;;;;;;;7.67;5.25;;;;;;;2.41;100.00;97775.25;2192734;81;20995;-82
2022/01/06 08:35:41;;;;;;;7.30;3.95;;;;;;;2.42;100.00;97783.33;2192357;81;21074;-84
2022/01/06 08:38:42;;;;;;;5.20;4.30;;;;;;;2.45;100.00;97784.31;2193099;81;21108;-84
2022/01/06 08:45:21;;;;;;;6.58;4.20;;;;;;;2.49;100.00;97792.11;2105256;84;21263;-83
2022/01/06 08:51:32;;;;;;;8.63;6.22;;;;;;;2.62;100.00;97790.41;1978404;88;21072;-85
2022/01/06 08:54:33;;;;;;;5.78;4.72;;;;;;;2.70;100.00;97792.24;1948539;89;21523;-84
2022/01/06 08:57:34;;;;;;;10.50;5.80;;;;;;;2.74;100.00;97801.30;1987361;90;21102;-87
2022/01/06 09:00:37;;;;;;;7.87;4.40;;;;;;;2.75;100.00;97793.42;1987672;90;21079;-88
2022/01/06 09:03:37;;;;;;;4.65;4.20;;;;;;;2.80;100.00;97792.46;1988220;90;21150;-84
2022/01/06 09:06:38;;;;;;;5.40;4.87;;;;;;;2.89;100.00;97789.92;1987662;90;21562;-85
2022/01/06 09:09:39;;;;;;;4.53;4.10;;;;;;;2.96;100.00;97798.70;1987672;90;21620;-89
2022/01/06 09:12:40;;;;;;;6.47;4.35;;;;;;;3.02;100.00;97790.34;1987562;90;21553;-86
2022/01/06 09:15:41;;;;;;;4.55;4.25;;;;;;;3.08;100.00;97795.68;1998638;88;21050;-85
2022/01/06 09:18:42;;;;;;;9.83;6.83;;;;;;;3.19;100.00;97798.47;2038416;87;21103;-86
2022/01/06 09:24:49;;;;;;;7.15;4.05;;;;;;;3.25;100.00;97800.94;2078381;86;21143;-88
2022/01/06 09:27:50;;;;;;;5.12;4.40;;;;;;;3.28;100.00;97792.85;2111396;83;21080;-84
2022/01/06 09:30:59;;;;;;;13.40;6.42;;;;;;;3.22;100.00;97805.95;2038587;87;21060;-85
2022/01/06 09:34:01;;;;;;;6.03;4.17;;;;;;;3.26;100.00;97811.61;2037746;87;21616;-80
2022/01/06 09:37:05;;;;;;;8.90;5.30;;;;;;;3.26;100.00;97825.35;2039384;87;21088;-80
2022/01/06 09:40:09;;;;;;;6.58;3.60;;;;;;;3.09;100.00;97832.70;2039666;87;21063;-84
2022/01/06 09:43:12;;;;;;;6.50;4.17;;;;;;;2.94;100.00;97831.19;2039688;87;21653;-84
2022/01/06 09:46:15;;;;;;;9.03;4.60;;;;;;;2.84;100.00;97850.67;2039480;87;21012;-86
2022/01/06 09:49:16;;;;;;;7.85;5.53;;;;;;;2.78;100.00;97861.61;2039833;87;21099;-85
2022/01/06 09:52:17;;;;;;;11.88;5.62;;;;;;;2.79;100.00;97852.89;2039638;87;21087;-86
2022/01/06 09:55:21;;;;;;;9.48;7.12;;;;;;;2.79;100.00;97861.94;2039592;87;21114;-84
2022/01/06 09:58:24;;;;;;;7.95;5.30;;;;;;;2.90;100.00;97869.92;2039657;87;21155;-82
2022/01/06 10:01:25;;;;;;;4.42;3.67;;;;;;;2.84;100.00;97871.84;2039593;87;21059;-82
2022/01/06 10:04:28;;;;;;;6.17;3.87;;;;;;;2.75;100.00;97872.27;2039623;87;21095;-81
2022/01/06 10:07:28;;;;;;;16.30;8.48;;;;;;;2.65;100.00;97877.17;2039738;87;21147;-83
2022/01/06 10:10:29;;;;;;;18.52;9.40;;;;;;;2.64;100.00;97889.28;2039955;87;21062;-84
2022/01/06 10:13:32;;;;;;;10.43;5.65;;;;;;;2.73;100.00;97894.03;2039636;87;21003;-82
2022/01/06 10:16:33;;;;;;;12.98;5.70;;;;;;;2.71;100.00;97898.07;2039645;87;21592;-83
2022/01/06 10:19:34;;;;;;;7.75;4.45;;;;;;;2.58;100.00;97901.53;2039455;87;21099;-82
2022/01/06 10:22:34;;;;;;;11.75;5.70;;;;;;;2.46;100.00;97909.97;2039716;87;21075;-85
2022/01/06 10:25:38;;;;;;;13.93;6.42;;;;;;;2.50;100.00;97894.52;2042193;85;21092;-85
2022/01/06 10:28:38;;;;;;;10.70;5.75;;;;;;;2.70;100.00;97888.70;2059229;86;21628;-86
2022/01/06 10:31:39;;;;;;;10.45;5.65;;;;;;;2.86;100.00;97898.36;2055189;87;20986;-86
2022/01/06 10:34:39;;;;;;;12.73;7.53;;;;;;;2.92;100.00;97911.95;2055473;87;21015;-87
2022/01/06 10:37:40;;;;;;;13.75;6.87;;;;;;;2.98;100.00;97910.55;2056107;87;21026;-87
2022/01/06 10:40:44;;;;;;;10.28;5.42;;;;;;;3.00;100.00;97921.55;2108116;82;21015;-86
2022/01/06 10:43:45;;;;;;;13.00;6.58;;;;;;;2.99;100.00;97919.93;2173393;82;21024;-85
2022/01/06 10:46:50;;;;;;;11.38;5.80;;;;;;;2.99;100.00;97919.93;2175393;81;20997;-87
2022/01/06 10:52:58;;;;;;;25.55;10.05;;;;;;;3.11;100.00;97932.97;2053613;87;21542;-84
2022/01/06 10:55:58;;;;;;;14.83;7.60;;;;;;;3.14;100.00;97920.53;2083503;85;21053;-81
2022/01/06 10:59:02;;;;;;;9.38;6.10;;;;;;;3.17;100.00;97915.53;2083305;85;21136;-85
2022/01/06 11:02:06;;;;;;;22.60;9.38;;;;;;;3.19;100.00;97930.89;2080529;85;21097;-88
2022/01/06 11:05:07;;;;;;;8.43;5.17;;;;;;;3.16;100.00;97928.63;2084255;85;21334;-87
2022/01/06 11:08:08;;;;;;;14.10;6.97;;;;;;;2.97;100.00;97945.95;2084325;85;21541;-87
2022/01/06 11:14:14;;;;;;;14.75;7.70;;;;;;;2.90;100.00;97951.86;2082676;85;21056;-85
2022/01/06 11:17:12;;;;;;;9.85;6.05;;;;;;;3.04;100.00;97946.17;2082051;85;21105;-87
2022/01/06 11:20:13;;;;;;;15.53;8.65;;;;;;;3.18;100.00;97949.48;2083404;85;21085;-88
2022/01/06 11:23:16;;;;;;;8.33;5.85;;;;;;;3.27;100.00;97963.30;2082480;85;21068;-88
2022/01/06 11:26:17;;;;;;;17.35;8.33;;;;;;;3.30;100.00;97965.60;2090171;83;21522;-87
2022/01/06 11:29:18;;;;;;;8.68;5.17;;;;;;;3.33;100.00;97967.39;2114567;84;21561;-88
2022/01/06 11:32:20;;;;;;;7.15;4.62;;;;;;;3.25;100.00;97979.45;2114911;84;21031;-85
